createdAt,value
2023-02-22T00:03:01.343Z,90.04
2023-02-22T00:06:06.429Z,89.34
2023-02-22T00:09:10.476Z,89.14
2023-02-22T00:12:14.325Z,87.61
2023-02-22T00:15:19.579Z,87.03
2023-02-22T00:18:23.286Z,86.78
2023-02-22T00:21:26.330Z,86.81
2023-02-22T00:24:29.623Z,86.42
2023-02-22T00:27:32.558Z,87.68
2023-02-22T00:30:35.870Z,87.38
2023-02-22T00:33:39.484Z,86.38
2023-02-22T00:36:48.365Z,87.49
2023-02-22T00:39:51.559Z,88.14
2023-02-22T00:42:54.799Z,87.99
2023-02-22T00:45:58.163Z,87.83
2023-02-22T00:49:01.831Z,88.09
2023-02-22T00:52:05.095Z,89.72
2023-02-22T00:55:10.590Z,89.72
2023-02-22T00:58:14.436Z,89.58
2023-02-22T01:01:18.413Z,89.39
2023-02-22T01:04:21.598Z,90.50
2023-02-22T01:07:26.046Z,89.31
2023-02-22T01:10:31.112Z,89.21
2023-02-22T01:13:35.669Z,88.74
2023-02-22T01:16:38.956Z,88.60
2023-02-22T01:19:42.680Z,88.60
2023-02-22T01:22:48.285Z,88.64
2023-02-22T01:25:51.546Z,88.71
2023-02-22T01:28:54.183Z,88.28
2023-02-22T01:31:57.600Z,88.90
2023-02-22T01:35:00.251Z,88.95
2023-02-22T01:38:03.598Z,88.46
2023-02-22T01:41:06.686Z,88.06
2023-02-22T01:44:37.530Z,88.18
2023-02-22T01:47:40.979Z,87.95
2023-02-22T01:50:48.921Z,87.76
2023-02-22T01:54:04.051Z,87.72
2023-02-22T01:57:14.358Z,87.61
2023-02-22T02:00:21.216Z,87.62
2023-02-22T02:03:29.145Z,87.91
2023-02-22T02:06:34.008Z,88.19
2023-02-22T02:10:15.661Z,88.75
2023-02-22T02:13:18.671Z,89.06
2023-02-22T02:16:34.670Z,89.10
2023-02-22T02:19:53.072Z,89.26
2023-02-22T02:23:13.926Z,88.78
2023-02-22T02:26:35.121Z,88.95
2023-02-22T02:29:57.387Z,89.12
2023-02-22T02:33:20.939Z,89.43
2023-02-22T02:36:39.772Z,89.51
2023-02-22T02:39:57.156Z,89.61
2023-02-22T02:43:32.617Z,89.74
2023-02-22T02:46:43.492Z,89.75
2023-02-22T02:50:23.897Z,90.19
2023-02-22T02:53:34.734Z,91.09
2023-02-22T02:56:38.217Z,91.63
2023-02-22T02:59:41.473Z,92.08
2023-02-22T03:03:23.050Z,91.17
2023-02-22T03:06:42.149Z,90.89
2023-02-22T03:10:16.456Z,91.90
2023-02-22T03:13:36.448Z,90.83
2023-02-22T03:16:56.939Z,90.80
2023-02-22T03:20:06.463Z,91.75
2023-02-22T03:23:20.703Z,92.77
2023-02-22T03:26:45.604Z,92.89
2023-02-22T03:29:52.206Z,92.00
2023-02-22T03:33:09.273Z,92.69
2023-02-22T03:36:20.379Z,91.62
2023-02-22T03:39:31.197Z,91.02
2023-02-22T03:42:37.735Z,91.60
2023-02-22T03:45:43.938Z,91.21
2023-02-22T03:49:05.434Z,91.93
2023-02-22T03:52:09.522Z,92.84
2023-02-22T03:55:14.112Z,92.88
2023-02-22T03:58:19.352Z,94.55
2023-02-22T04:01:24.023Z,94.31
2023-02-22T04:04:28.394Z,94.43
2023-02-22T04:07:32.864Z,94.78
2023-02-22T04:10:38.151Z,95.22
2023-02-22T04:13:41.135Z,96.40
2023-02-22T04:16:46.061Z,95.21
2023-02-22T04:19:49.146Z,94.81
2023-02-22T04:22:56.617Z,94.67
2023-02-22T04:25:59.867Z,94.56
2023-02-22T04:29:04.472Z,94.26
2023-02-22T04:32:09.267Z,94.33
2023-02-22T04:35:12.737Z,94.03
2023-02-22T04:38:15.737Z,94.07
2023-02-22T04:41:20.083Z,94.21
2023-02-22T04:44:23.420Z,95.57
2023-02-22T04:47:26.798Z,96.27
2023-02-22T04:50:30.239Z,95.97
2023-02-22T04:53:33.990Z,95.30
2023-02-22T04:56:37.162Z,95.42
2023-02-22T04:59:41.765Z,96.41
2023-02-22T05:02:46.917Z,96.00
2023-02-22T05:05:52.368Z,95.77
2023-02-22T05:08:55.290Z,95.42
2023-02-22T05:11:59.791Z,95.94
2023-02-22T05:15:05.673Z,95.33
2023-02-22T05:18:09.038Z,95.60
2023-02-22T05:21:13.734Z,95.77
2023-02-22T05:24:18.171Z,95.45
2023-02-22T05:27:21.068Z,95.36
2023-02-22T05:30:28.736Z,95.45
2023-02-22T05:33:31.892Z,95.20
2023-02-22T05:36:35.275Z,94.88
2023-02-22T05:39:38.309Z,95.09
2023-02-22T05:42:41.991Z,95.04
2023-02-22T05:45:45.092Z,94.81
2023-02-22T05:48:48.459Z,95.00
2023-02-22T05:51:51.864Z,95.21
2023-02-22T05:54:55.301Z,95.45
2023-02-22T05:57:58.341Z,95.48
2023-02-22T06:01:03.189Z,95.38
2023-02-22T06:04:06.822Z,95.20
2023-02-22T06:07:10.824Z,94.52
2023-02-22T06:10:14.380Z,94.42
2023-02-22T06:13:17.506Z,93.95
2023-02-22T06:16:21.893Z,93.68
2023-02-22T06:19:25.274Z,93.48
2023-02-22T06:22:28.802Z,93.20
2023-02-22T06:25:32.150Z,93.59
2023-02-22T06:28:35.500Z,92.64
2023-02-22T06:31:38.530Z,91.47
2023-02-22T06:34:41.882Z,90.99
2023-02-22T06:37:45.131Z,90.25
2023-02-22T06:40:48.429Z,89.42
2023-02-22T06:43:51.435Z,88.68
2023-02-22T06:46:54.892Z,89.22
2023-02-22T06:50:00.959Z,88.55
2023-02-22T06:53:04.668Z,87.45
2023-02-22T06:56:07.653Z,87.56
2023-02-22T06:59:11.853Z,87.61
2023-02-22T07:02:16.244Z,87.00
2023-02-22T07:05:21.898Z,86.68
2023-02-22T07:08:24.874Z,85.82
2023-02-22T07:11:28.177Z,85.62
2023-02-22T07:14:31.098Z,85.57
2023-02-22T07:17:34.367Z,85.29
2023-02-22T07:20:37.536Z,85.46
2023-02-22T07:23:40.809Z,84.93
2023-02-22T07:26:43.738Z,84.67
2023-02-22T07:29:46.962Z,84.09
2023-02-22T07:32:49.862Z,82.50
2023-02-22T07:35:53.081Z,81.84
2023-02-22T07:38:55.734Z,81.66
2023-02-22T07:41:59.398Z,81.47
2023-02-22T07:45:04.899Z,82.54
2023-02-22T07:48:08.184Z,82.34
2023-02-22T07:51:11.423Z,81.84
2023-02-22T07:54:14.700Z,83.04
2023-02-22T07:57:17.923Z,82.82
2023-02-22T08:00:41.655Z,82.90
2023-02-22T08:03:47.684Z,82.31
2023-02-22T08:06:50.672Z,80.97
2023-02-22T08:09:54.434Z,80.61
2023-02-22T08:12:57.515Z,80.45
2023-02-22T08:16:01.253Z,79.91
2023-02-22T08:19:04.121Z,80.90
2023-02-22T08:22:07.327Z,79.24
2023-02-22T08:25:10.590Z,79.49
2023-02-22T08:28:16.485Z,78.41
2023-02-22T08:31:19.950Z,78.83
2023-02-22T08:34:24.930Z,78.06
2023-02-22T08:37:28.320Z,78.86
2023-02-22T08:40:34.792Z,80.00
2023-02-22T08:43:37.806Z,80.09
2023-02-22T08:46:41.092Z,79.42
2023-02-22T08:49:44.020Z,77.78
2023-02-22T08:52:47.444Z,78.70
2023-02-22T08:55:51.714Z,79.26
2023-02-22T08:58:56.047Z,77.75
2023-02-22T09:01:58.973Z,79.64
2023-02-22T09:05:02.262Z,78.63
2023-02-22T09:08:05.972Z,76.79
2023-02-22T09:11:09.341Z,76.62
2023-02-22T09:14:12.336Z,76.83
2023-02-22T09:17:15.594Z,78.80
2023-02-22T09:20:21.199Z,78.63
2023-02-22T09:23:26.048Z,74.70
2023-02-22T09:26:28.985Z,76.07
2023-02-22T09:29:32.521Z,77.13
2023-02-22T09:32:36.810Z,75.62
2023-02-22T09:35:46.602Z,77.48
2023-02-22T09:38:50.472Z,75.09
2023-02-22T09:42:16.593Z,75.43
2023-02-22T09:45:32.895Z,75.61
2023-02-22T09:48:46.081Z,74.17
2023-02-22T09:51:53.473Z,75.64
2023-02-22T09:55:26.587Z,75.68
2023-02-22T09:58:33.772Z,75.24
2023-02-22T10:01:44.477Z,73.62
2023-02-22T10:04:58.040Z,73.24
2023-02-22T10:08:06.108Z,73.49
2023-02-22T10:11:18.613Z,70.32
2023-02-22T10:14:33.547Z,70.67
2023-02-22T10:17:59.005Z,72.65
2023-02-22T10:21:14.489Z,70.82
2023-02-22T10:24:25.017Z,71.36
2023-02-22T10:27:43.057Z,72.23
2023-02-22T10:30:55.034Z,71.59
2023-02-22T10:34:03.152Z,71.64
2023-02-22T10:37:34.185Z,71.17
2023-02-22T10:40:39.417Z,68.79
2023-02-22T10:43:43.715Z,69.22
2023-02-22T10:46:47.511Z,70.42
2023-02-22T10:49:53.979Z,71.42
2023-02-22T10:52:57.011Z,70.88
2023-02-22T10:56:21.402Z,69.38
2023-02-22T10:59:29.022Z,67.80
2023-02-22T11:02:36.008Z,68.05
2023-02-22T11:05:41.205Z,68.88
2023-02-22T11:08:50.369Z,67.39
2023-02-22T11:12:11.298Z,70.77
2023-02-22T11:15:17.613Z,70.01
2023-02-22T11:18:29.488Z,68.71
2023-02-22T11:21:32.934Z,67.42
2023-02-22T11:24:49.346Z,65.03
2023-02-22T11:27:54.241Z,64.99
2023-02-22T11:31:19.029Z,64.79
2023-02-22T11:34:28.725Z,62.97
2023-02-22T11:37:36.852Z,63.85
2023-02-22T11:40:40.302Z,64.17
2023-02-22T11:43:47.975Z,65.26
2023-02-22T11:46:55.795Z,65.21
2023-02-22T11:50:02.347Z,67.01
2023-02-22T11:53:15.344Z,65.49
2023-02-22T11:56:40.606Z,62.78
2023-02-22T11:59:56.444Z,61.90
2023-02-22T12:03:02.485Z,64.67
2023-02-22T12:06:16.549Z,62.11
2023-02-22T12:09:27.122Z,61.21
2023-02-22T12:12:45.824Z,62.00
2023-02-22T12:16:12.097Z,58.82
2023-02-22T12:19:25.429Z,59.21
2023-02-22T12:22:34.945Z,57.21
2023-02-22T12:25:47.808Z,59.25
2023-02-22T12:28:50.786Z,58.43
2023-02-22T12:32:06.301Z,59.08
2023-02-22T12:35:23.599Z,61.14
2023-02-22T12:38:38.422Z,61.09
2023-02-22T12:41:47.447Z,60.35
2023-02-22T12:44:57.077Z,63.08
2023-02-22T12:48:21.854Z,63.49
2023-02-22T12:52:15.785Z,64.97
2023-02-22T12:55:42.423Z,65.06
2023-02-22T12:58:54.224Z,68.18
2023-02-22T13:02:01.428Z,67.38
2023-02-22T13:05:05.168Z,67.62
2023-02-22T13:08:23.636Z,68.36
2023-02-22T13:11:38.772Z,67.21
2023-02-22T13:14:50.776Z,67.30
2023-02-22T13:18:07.745Z,66.10
2023-02-22T13:21:23.554Z,63.84
2023-02-22T13:24:35.160Z,64.92
2023-02-22T13:27:45.173Z,65.57
2023-02-22T13:31:04.918Z,64.79
2023-02-22T13:34:40.276Z,62.81
2023-02-22T13:37:50.640Z,60.45
2023-02-22T13:41:02.891Z,59.37
2023-02-22T13:44:12.462Z,59.69
2023-02-22T13:47:15.408Z,59.54
2023-02-22T13:50:30.769Z,60.28
2023-02-22T13:53:50.532Z,60.33
2023-02-22T13:56:55.955Z,60.03
2023-02-22T14:00:23.012Z,61.06
2023-02-22T14:03:43.149Z,63.01
2023-02-22T14:06:46.188Z,64.30
2023-02-22T14:09:57.348Z,64.74
2023-02-22T14:13:09.502Z,64.79
2023-02-22T14:16:12.734Z,63.87
2023-02-22T14:19:18.261Z,63.96
2023-02-22T14:22:28.546Z,63.80
2023-02-22T14:25:32.346Z,63.38
2023-02-22T14:28:43.038Z,63.24
2023-02-22T14:31:51.852Z,62.88
2023-02-22T14:34:58.310Z,62.60
2023-02-22T14:38:01.849Z,61.96
2023-02-22T14:41:05.870Z,62.17
2023-02-22T14:44:12.977Z,62.32
2023-02-22T14:47:32.670Z,62.34
2023-02-22T14:50:41.864Z,62.09
2023-02-22T14:54:01.555Z,62.08
2023-02-22T14:57:15.650Z,61.98
2023-02-22T15:00:31.246Z,63.37
2023-02-22T15:03:37.942Z,64.91
2023-02-22T15:06:41.195Z,64.70
2023-02-22T15:09:46.749Z,65.46
2023-02-22T15:13:09.085Z,66.07
2023-02-22T15:16:14.728Z,65.36
2023-02-22T15:19:25.648Z,66.12
2023-02-22T15:22:35.725Z,66.98
2023-02-22T15:25:40.868Z,67.99
2023-02-22T15:28:44.019Z,68.09
2023-02-22T15:31:48.742Z,68.13
2023-02-22T15:34:52.003Z,68.78
2023-02-22T15:38:06.545Z,69.24
2023-02-22T15:41:22.471Z,68.47
2023-02-22T15:44:25.769Z,68.30
2023-02-22T15:47:32.058Z,68.38
2023-02-22T15:50:35.567Z,68.48
2023-02-22T15:53:44.748Z,68.79
2023-02-22T15:56:50.714Z,68.83
2023-02-22T15:59:56.438Z,69.03
2023-02-22T16:03:00.195Z,69.41
2023-02-22T16:06:09.158Z,69.99
2023-02-22T16:09:15.100Z,70.41
2023-02-22T16:12:21.464Z,72.09
2023-02-22T16:15:24.612Z,72.62
2023-02-22T16:18:33.761Z,73.42
2023-02-22T16:22:10.408Z,73.21
2023-02-22T16:25:21.728Z,73.59
2023-02-22T16:28:34.047Z,74.02
2023-02-22T16:31:39.319Z,74.68
2023-02-22T16:34:43.282Z,75.00
2023-02-22T16:37:49.518Z,74.87
2023-02-22T16:40:55.968Z,74.41
2023-02-22T16:44:00.034Z,74.82
2023-02-22T16:47:03.666Z,75.20
2023-02-22T16:50:07.629Z,75.68
2023-02-22T16:53:12.471Z,76.23
2023-02-22T16:56:29.661Z,76.50
2023-02-22T16:59:38.933Z,77.02
2023-02-22T17:02:42.554Z,77.93
2023-02-22T17:05:45.953Z,77.91
2023-02-22T17:08:52.417Z,78.45
2023-02-22T17:11:56.060Z,78.65
2023-02-22T17:15:00.149Z,79.15
2023-02-22T17:18:23.488Z,79.39
2023-02-22T17:21:27.608Z,79.75
2023-02-22T17:24:31.064Z,79.95
2023-02-22T17:27:34.815Z,80.39
2023-02-22T17:30:40.225Z,80.75
2023-02-22T17:33:45.521Z,81.03
2023-02-22T17:36:49.714Z,81.20
2023-02-22T17:39:55.394Z,81.74
2023-02-22T17:43:01.778Z,82.09
2023-02-22T17:46:08.361Z,82.95
2023-02-22T17:49:14.736Z,82.94
2023-02-22T17:52:20.120Z,83.20
2023-02-22T17:55:25.275Z,83.08
2023-02-22T17:58:35.121Z,82.81
2023-02-22T18:01:39.113Z,82.56
2023-02-22T18:04:44.485Z,82.44
2023-02-22T18:07:49.064Z,82.17
2023-02-22T18:10:57.089Z,82.03
2023-02-22T18:14:01.915Z,81.58
2023-02-22T18:17:06.778Z,81.28
2023-02-22T18:20:12.661Z,80.36
2023-02-22T18:23:20.086Z,79.37
2023-02-22T18:26:28.666Z,78.87
2023-02-22T18:29:38.561Z,78.21
2023-02-22T18:32:47.597Z,77.69
2023-02-22T18:35:53.192Z,77.62
2023-02-22T18:38:58.823Z,78.26
2023-02-22T18:42:04.778Z,78.12
2023-02-22T18:45:10.424Z,77.90
2023-02-22T18:48:18.061Z,78.14
2023-02-22T18:51:24.003Z,77.23
2023-02-22T18:54:30.852Z,77.25
2023-02-22T18:57:40.137Z,76.98
2023-02-22T19:00:45.695Z,77.01
2023-02-22T19:03:52.190Z,76.55
2023-02-22T19:06:58.126Z,76.22
2023-02-22T19:10:03.127Z,76.16
2023-02-22T19:13:11.801Z,75.94
2023-02-22T19:16:20.303Z,76.24
2023-02-22T19:19:26.662Z,75.81
2023-02-22T19:22:33.506Z,75.93
2023-02-22T19:25:41.911Z,75.97
2023-02-22T19:28:49.937Z,75.63
2023-02-22T19:31:57.659Z,77.02
2023-02-22T19:35:08.431Z,77.29
2023-02-22T19:38:14.193Z,76.58
2023-02-22T19:41:23.995Z,76.41
2023-02-22T19:44:29.475Z,76.99
2023-02-22T19:47:36.032Z,76.69
2023-02-22T19:50:49.780Z,77.09
2023-02-22T19:53:55.664Z,77.00
2023-02-22T19:57:01.271Z,76.75
2023-02-22T20:00:12.172Z,76.77
2023-02-22T20:03:26.395Z,78.02
2023-02-22T20:06:40.879Z,77.19
2023-02-22T20:09:46.641Z,76.19
2023-02-22T20:12:51.847Z,75.82
2023-02-22T20:15:59.085Z,76.14
2023-02-22T20:19:05.374Z,75.97
2023-02-22T20:22:10.903Z,75.70
2023-02-22T20:25:18.973Z,75.19
2023-02-22T20:28:25.506Z,74.95
2023-02-22T20:31:31.337Z,74.41
2023-02-22T20:34:36.953Z,75.16
2023-02-22T20:37:43.320Z,74.61
2023-02-22T20:41:03.382Z,74.50
2023-02-22T20:44:08.774Z,74.90
2023-02-22T20:47:15.740Z,74.86
2023-02-22T20:50:22.165Z,74.43
2023-02-22T20:53:26.846Z,74.72
2023-02-22T20:56:32.611Z,74.79
2023-02-22T20:59:37.430Z,75.08
2023-02-22T21:02:41.782Z,75.36
2023-02-22T21:05:47.734Z,75.46
2023-02-22T21:08:57.836Z,75.58
2023-02-22T21:12:02.316Z,75.10
2023-02-22T21:15:07.619Z,75.20
2023-02-22T21:18:14.568Z,75.61
2023-02-22T21:21:22.259Z,75.28
2023-02-22T21:24:30.025Z,75.75
2023-02-22T21:27:42.350Z,75.67
2023-02-22T21:30:48.011Z,75.50
2023-02-22T21:33:55.224Z,76.12
2023-02-22T21:36:59.340Z,75.67
2023-02-22T21:40:12.054Z,75.22
2023-02-22T21:43:20.332Z,75.05
2023-02-22T21:46:25.596Z,74.73
2023-02-22T21:49:28.996Z,74.80
2023-02-22T21:52:32.659Z,74.32
2023-02-22T21:55:38.345Z,73.59
2023-02-22T21:58:44.892Z,73.47
2023-02-22T22:01:56.101Z,72.82
2023-02-22T22:05:00.213Z,72.95
2023-02-22T22:08:07.476Z,73.26
2023-02-22T22:11:12.299Z,72.68
2023-02-22T22:14:17.242Z,73.54
2023-02-22T22:17:21.886Z,73.07
2023-02-22T22:20:24.655Z,72.51
2023-02-22T22:23:27.852Z,72.45
2023-02-22T22:26:31.298Z,72.71
2023-02-22T22:29:34.724Z,72.92
2023-02-22T22:32:38.189Z,72.82
2023-02-22T22:35:42.082Z,72.84
2023-02-22T22:38:48.527Z,72.93
2023-02-22T22:41:52.329Z,72.90
2023-02-22T22:44:56.508Z,72.49
2023-02-22T22:47:59.792Z,73.01
2023-02-22T22:51:06.709Z,72.85
2023-02-22T22:54:10.566Z,72.57
2023-02-22T22:57:15.690Z,72.64
2023-02-22T23:00:30.089Z,72.83
2023-02-22T23:03:36.955Z,72.73
2023-02-22T23:06:41.796Z,72.70
2023-02-22T23:09:44.501Z,72.87
2023-02-22T23:12:47.828Z,72.81
2023-02-22T23:15:53.478Z,73.19
2023-02-22T23:18:58.814Z,72.87
2023-02-22T23:22:05.446Z,72.80
2023-02-22T23:25:10.049Z,72.39
2023-02-22T23:28:14.901Z,72.18
2023-02-22T23:31:18.513Z,72.62
2023-02-22T23:34:23.584Z,72.57
2023-02-22T23:37:28.231Z,72.68
2023-02-22T23:40:31.165Z,72.89
2023-02-22T23:43:34.888Z,72.73
2023-02-22T23:46:41.211Z,72.48
2023-02-22T23:49:49.977Z,72.40
2023-02-22T23:52:57.750Z,72.26
2023-02-22T23:56:01.717Z,72.69
2023-02-22T23:59:12.642Z,73.22
